createdAt,value
2022-08-19T00:00:16.974Z,100533.38
2022-08-19T00:02:47.844Z,100528.69
2022-08-19T00:05:20.394Z,100528.97
2022-08-19T00:07:49.651Z,100533.69
2022-08-19T00:10:18.852Z,100524.56
2022-08-19T00:12:47.425Z,100533.94
2022-08-19T00:15:20.993Z,100531.19
2022-08-19T00:17:50.138Z,100533.41
2022-08-19T00:20:21.525Z,100531.75
2022-08-19T00:22:50.326Z,100543.59
2022-08-19T00:25:19.339Z,100542.25
2022-08-19T00:28:00.035Z,100551.59
2022-08-19T00:30:30.206Z,100542.50
2022-08-19T00:32:58.856Z,100546.91
2022-08-19T00:35:28.212Z,100550.75
2022-08-19T00:37:57.478Z,100547.72
2022-08-19T00:40:26.205Z,100555.16
2022-08-19T00:42:55.303Z,100552.41
2022-08-19T00:45:26.519Z,100555.16
2022-08-19T00:47:56.335Z,100552.41
2022-08-19T00:50:25.513Z,100557.63
2022-08-19T00:52:54.756Z,100557.91
2022-08-19T00:55:29.124Z,100562.31
2022-08-19T00:58:02.397Z,100572.53
2022-08-19T01:00:31.916Z,100579.94
2022-08-19T01:03:01.874Z,100574.16
2022-08-19T01:05:31.828Z,100576.63
2022-08-19T01:08:03.000Z,100589.03
2022-08-19T01:10:36.901Z,100591.81
2022-08-19T01:13:06.454Z,100591.56
2022-08-19T01:15:40.718Z,100593.44
2022-08-19T01:18:13.209Z,100586.03
2022-08-19T01:20:43.220Z,100587.13
2022-08-19T01:23:14.140Z,100589.88
2022-08-19T01:25:47.660Z,100583.81
2022-08-19T01:28:34.138Z,100585.72
2022-08-19T01:31:26.447Z,100593.16
2022-08-19T01:33:58.268Z,100594.53
2022-08-19T01:36:30.926Z,100588.19
2022-08-19T01:39:01.527Z,100592.03
2022-08-19T01:41:30.217Z,100588.44
2022-08-19T01:44:03.238Z,100580.19
2022-08-19T01:46:46.763Z,100581.53
2022-08-19T01:49:15.300Z,100583.41
2022-08-19T01:51:43.776Z,100572.38
2022-08-19T01:54:27.111Z,100571.56
2022-08-19T01:57:00.309Z,100566.31
2022-08-19T01:59:29.026Z,100563.00
2022-08-19T02:01:57.508Z,100551.97
2022-08-19T02:04:26.620Z,100547.00
2022-08-19T02:06:55.084Z,100544.53
2022-08-19T02:09:24.968Z,100548.38
2022-08-19T02:11:54.504Z,100579.22
2022-08-19T02:14:23.080Z,100604.25
2022-08-19T02:16:51.488Z,100608.91
2022-08-19T02:19:19.916Z,100599.25
2022-08-19T02:21:48.429Z,100602.53
2022-08-19T02:24:16.818Z,100600.81
2022-08-19T02:26:46.688Z,100606.09
2022-08-19T02:29:15.150Z,100601.94
2022-08-19T02:31:43.631Z,100606.91
2022-08-19T02:34:12.082Z,100605.50
2022-08-19T02:36:42.306Z,100607.72
2022-08-19T02:39:10.543Z,100601.94
2022-08-19T02:41:39.261Z,100611.06
2022-08-19T02:44:28.584Z,100605.56
2022-08-19T02:46:57.672Z,100609.38
2022-08-19T02:49:26.101Z,100612.97
2022-08-19T02:51:55.493Z,100610.22
2022-08-19T02:54:23.964Z,100614.88
2022-08-19T02:56:52.521Z,100618.75
2022-08-19T02:59:22.932Z,100623.44
2022-08-19T03:01:51.784Z,100613.53
2022-08-19T03:04:20.514Z,100614.88
2022-08-19T03:06:49.609Z,100613.22
2022-08-19T03:09:20.703Z,100612.66
2022-08-19T03:11:49.886Z,100615.94
2022-08-19T03:14:22.727Z,100616.19
2022-08-19T03:16:53.682Z,100628.28
2022-08-19T03:19:23.465Z,100623.88
2022-08-19T03:21:52.759Z,100626.00
2022-08-19T03:24:21.826Z,100627.91
2022-08-19T03:26:52.342Z,100629.28
2022-08-19T03:29:30.352Z,100639.41
2022-08-19T03:32:01.695Z,100639.97
2022-08-19T03:34:32.935Z,100634.19
2022-08-19T03:37:07.831Z,100635.03
2022-08-19T03:39:38.218Z,100632.25
2022-08-19T03:42:47.753Z,100624.88
2022-08-19T03:44:57.038Z,100618.25
2022-08-19T03:47:25.459Z,100619.34
2022-08-19T03:49:53.863Z,100618.25
2022-08-19T03:52:22.300Z,100628.16
2022-08-19T03:54:50.731Z,100624.59
2022-08-19T03:57:19.267Z,100624.59
2022-08-19T03:59:47.645Z,100617.16
2022-08-19T04:02:17.773Z,100623.47
2022-08-19T04:04:46.585Z,100623.75
2022-08-19T04:07:17.486Z,100643.25
2022-08-19T04:09:46.393Z,100637.16
2022-08-19T04:12:16.030Z,100641.59
2022-08-19T04:14:44.467Z,100638.56
2022-08-19T04:17:14.061Z,100643.25
2022-08-19T04:19:44.107Z,100639.97
2022-08-19T04:22:13.706Z,100644.38
2022-08-19T04:24:42.231Z,100640.53
2022-08-19T04:27:10.809Z,100642.44
2022-08-19T04:29:40.628Z,100637.53
2022-08-19T04:32:09.877Z,100645.50
2022-08-19T04:35:02.391Z,100641.38
2022-08-19T04:37:35.563Z,100647.97
2022-08-19T04:40:24.331Z,100651.25
2022-08-19T04:42:53.076Z,100657.31
2022-08-19T04:45:22.838Z,100650.19
2022-08-19T04:47:58.669Z,100646.91
2022-08-19T04:50:42.980Z,100647.53
2022-08-19T04:53:12.966Z,100654.34
2022-08-19T04:55:43.553Z,100652.19
2022-08-19T04:58:12.044Z,100643.66
2022-08-19T05:00:41.674Z,100646.97
2022-08-19T05:03:10.444Z,100646.19
2022-08-19T05:05:44.842Z,100650.59
2022-08-19T05:08:31.065Z,100645.09
2022-08-19T05:11:00.548Z,100650.63
2022-08-19T05:13:29.251Z,100644.56
2022-08-19T05:15:58.857Z,100647.88
2022-08-19T05:18:45.766Z,100651.50
2022-08-19T05:21:34.837Z,100655.09
2022-08-19T05:24:09.585Z,100649.31
2022-08-19T05:26:39.130Z,100652.63
2022-08-19T05:29:09.581Z,100651.28
2022-08-19T05:31:39.585Z,100648.25
2022-08-19T05:34:18.445Z,100652.03
2022-08-19T05:36:48.813Z,100648.75
2022-08-19T05:39:22.839Z,100647.94
2022-08-19T05:41:54.482Z,100640.25
2022-08-19T05:44:23.641Z,100643.84
2022-08-19T05:46:53.988Z,100656.84
2022-08-19T05:49:24.913Z,100646.94
2022-08-19T05:51:54.029Z,100643.38
2022-08-19T05:54:25.154Z,100644.22
2022-08-19T05:56:54.665Z,100644.25
2022-08-19T05:59:24.886Z,100641.50
2022-08-19T06:01:56.125Z,100650.06
2022-08-19T06:04:26.476Z,100639.91
2022-08-19T06:06:56.134Z,100652.88
2022-08-19T06:09:26.010Z,100644.63
2022-08-19T06:11:56.287Z,100645.50
2022-08-19T06:14:30.198Z,100649.38
2022-08-19T06:17:04.937Z,100646.91
2022-08-19T06:19:41.082Z,100652.19
2022-08-19T06:22:10.899Z,100648.03
2022-08-19T06:24:40.874Z,100646.13
2022-08-19T06:27:09.391Z,100650.84
2022-08-19T06:29:38.061Z,100653.06
2022-08-19T06:32:06.862Z,100653.63
2022-08-19T06:34:36.796Z,100655.00
2022-08-19T06:37:06.792Z,100643.94
2022-08-19T06:39:39.284Z,100640.41
2022-08-19T06:42:12.535Z,100650.31
2022-08-19T06:44:43.845Z,100642.06
2022-08-19T06:47:23.498Z,100646.19
2022-08-19T06:50:02.787Z,100637.09
2022-08-19T06:52:36.742Z,100644.81
2022-08-19T06:55:07.906Z,100647.84
2022-08-19T06:57:37.880Z,100646.75
2022-08-19T07:00:13.028Z,100644.56
2022-08-19T07:02:44.711Z,100649.50
2022-08-19T07:05:17.104Z,100650.91
2022-08-19T07:07:45.583Z,100652.28
2022-08-19T07:10:16.442Z,100652.00
2022-08-19T07:12:48.727Z,100654.75
2022-08-19T07:15:17.348Z,100646.78
2022-08-19T07:17:52.540Z,100646.50
2022-08-19T07:20:21.779Z,100645.16
2022-08-19T07:22:56.859Z,100646.84
2022-08-19T07:25:32.352Z,100643.53
2022-08-19T07:28:03.037Z,100645.44
2022-08-19T07:30:31.999Z,100646.84
2022-08-19T07:33:03.705Z,100644.09
2022-08-19T07:35:34.648Z,100655.69
2022-08-19T07:38:04.899Z,100653.22
2022-08-19T07:40:33.601Z,100657.34
2022-08-19T07:43:03.570Z,100660.66
2022-08-19T07:45:33.354Z,100656.53
2022-08-19T07:48:02.149Z,100661.50
2022-08-19T07:50:30.677Z,100666.72
2022-08-19T07:52:59.232Z,100657.09
2022-08-19T07:55:41.061Z,100663.44
2022-08-19T07:58:15.604Z,100658.47
2022-08-19T08:00:44.796Z,100667.28
2022-08-19T08:03:13.769Z,100663.94
2022-08-19T08:06:00.229Z,100662.25
2022-08-19T08:08:48.359Z,100662.25
2022-08-19T08:11:20.787Z,100665.25
2022-08-19T08:14:00.823Z,100664.69
2022-08-19T08:16:35.727Z,100660.25
2022-08-19T08:19:20.231Z,100661.88
2022-08-19T08:21:57.689Z,100665.19
2022-08-19T08:24:28.722Z,100668.22
2022-08-19T08:26:58.013Z,100669.59
2022-08-19T08:29:34.489Z,100670.66
2022-08-19T08:32:13.963Z,100665.44
2022-08-19T08:34:43.033Z,100664.03
2022-08-19T08:37:11.588Z,100665.38
2022-08-19T08:39:40.177Z,100666.47
2022-08-19T08:42:18.047Z,100673.63
2022-08-19T08:47:30.770Z,100676.97
2022-08-19T08:50:05.202Z,100674.22
2022-08-19T08:52:39.371Z,100673.63
2022-08-19T08:55:12.514Z,100682.69
2022-08-19T08:57:46.706Z,100675.44
2022-08-19T09:00:20.958Z,100659.53
2022-08-19T09:02:50.559Z,100667.16
2022-08-19T09:05:22.707Z,100673.66
2022-08-19T09:08:01.832Z,100672.47
2022-08-19T09:10:34.056Z,100673.88
2022-08-19T09:13:12.208Z,100670.63
2022-08-19T09:15:47.461Z,100684.06
2022-08-19T09:18:19.509Z,100675.69
2022-08-19T09:20:49.509Z,100674.81
2022-08-19T09:23:18.304Z,100677.28
2022-08-19T09:25:55.308Z,100674.66
2022-08-19T09:28:27.283Z,100660.25
2022-08-19T09:30:57.272Z,100666.38
2022-08-19T09:33:25.878Z,100661.72
2022-08-19T09:36:08.425Z,100652.09
2022-08-19T09:38:43.641Z,100665.59
2022-08-19T09:41:14.927Z,100660.19
2022-08-19T09:43:47.826Z,100668.50
2022-08-19T09:46:19.283Z,100668.69
2022-08-19T09:48:53.295Z,100663.38
2022-08-19T09:51:24.052Z,100677.72
2022-08-19T09:53:55.078Z,100681.31
2022-08-19T09:56:24.682Z,100681.22
2022-08-19T09:58:53.562Z,100694.50
2022-08-19T10:01:26.844Z,100697.19
2022-08-19T10:03:58.850Z,100690.16
2022-08-19T10:06:46.684Z,100685.94
2022-08-19T10:09:17.346Z,100691.91
2022-08-19T10:11:55.227Z,100692.72
2022-08-19T10:14:24.799Z,100703.94
2022-08-19T10:16:54.702Z,100702.13
2022-08-19T10:19:25.705Z,100693.91
2022-08-19T10:21:58.574Z,100702.34
2022-08-19T10:24:29.366Z,100698.63
2022-08-19T10:26:59.734Z,100700.41
2022-08-19T10:29:32.535Z,100699.47
2022-08-19T10:32:04.647Z,100701.28
2022-08-19T10:34:48.354Z,100705.56
2022-08-19T10:37:23.743Z,100693.75
2022-08-19T10:39:57.439Z,100696.28
2022-08-19T10:42:25.890Z,100688.81
2022-08-19T10:44:54.404Z,100691.63
2022-08-19T10:47:26.018Z,100695.84
2022-08-19T10:50:13.779Z,100694.31
2022-08-19T10:52:49.457Z,100685.78
2022-08-19T10:55:39.514Z,100679.75
2022-08-19T10:58:13.397Z,100698.22
2022-08-19T11:00:43.394Z,100708.28
2022-08-19T11:03:13.345Z,100706.47
2022-08-19T11:05:42.453Z,100701.28
2022-08-19T11:08:22.121Z,100690.91
2022-08-19T11:10:59.149Z,100686.03
2022-08-19T11:13:27.764Z,100694.72
2022-08-19T11:16:06.562Z,100685.03
2022-08-19T11:18:38.852Z,100706.28
2022-08-19T11:21:09.183Z,100692.94
2022-08-19T11:23:37.739Z,100699.03
2022-08-19T11:26:06.426Z,100689.28
2022-08-19T11:28:35.074Z,100693.41
2022-08-19T11:31:04.427Z,100692.50
2022-08-19T11:33:33.835Z,100680.72
2022-08-19T11:36:03.646Z,100692.88
2022-08-19T11:38:32.206Z,100697.59
2022-08-19T11:41:02.230Z,100692.41
2022-08-19T11:43:36.795Z,100686.41
2022-08-19T11:46:08.974Z,100698.16
2022-08-19T11:48:37.945Z,100698.19
2022-08-19T11:51:10.874Z,100695.47
2022-08-19T11:53:40.448Z,100702.81
2022-08-19T11:56:10.762Z,100694.50
2022-08-19T11:58:39.235Z,100693.69
2022-08-19T12:01:09.229Z,100688.06
2022-08-19T12:03:37.831Z,100689.91
2022-08-19T12:06:09.567Z,100683.91
2022-08-19T12:08:38.052Z,100677.63
2022-08-19T12:11:08.842Z,100680.91
2022-08-19T12:13:38.030Z,100677.09
2022-08-19T12:16:10.737Z,100676.91
2022-08-19T12:18:39.290Z,100672.34
2022-08-19T12:21:09.227Z,100659.38
2022-08-19T12:23:38.481Z,100669.38
2022-08-19T12:26:07.217Z,100678.00
2022-08-19T12:28:35.777Z,100668.28
2022-08-19T12:31:04.321Z,100660.19
2022-08-19T12:33:33.163Z,100660.06
2022-08-19T12:36:04.861Z,100671.50
2022-08-19T12:38:35.368Z,100677.13
2022-08-19T12:41:07.412Z,100683.38
2022-08-19T12:43:36.865Z,100673.16
2022-08-19T12:46:05.756Z,100668.41
2022-08-19T12:48:35.172Z,100674.53
2022-08-19T12:51:08.299Z,100681.75
2022-08-19T12:53:39.229Z,100677.09
2022-08-19T12:56:11.530Z,100670.06
2022-08-19T12:58:48.889Z,100680.53
2022-08-19T13:01:23.163Z,100673.34
2022-08-19T13:03:53.254Z,100688.66
2022-08-19T13:06:22.524Z,100676.72
2022-08-19T13:08:56.501Z,100690.81
2022-08-19T13:11:28.206Z,100689.53
2022-08-19T13:13:57.261Z,100673.72
2022-08-19T13:16:28.577Z,100681.44
2022-08-19T13:18:58.571Z,100680.47
2022-08-19T13:21:31.007Z,100676.81
2022-08-19T13:24:01.066Z,100686.50
2022-08-19T13:26:29.546Z,100693.00
2022-08-19T13:29:15.321Z,100680.25
2022-08-19T13:32:01.976Z,100697.59
2022-08-19T13:34:35.046Z,100689.28
2022-08-19T13:37:05.148Z,100691.78
2022-08-19T13:39:36.309Z,100684.72
2022-08-19T13:42:05.870Z,100696.09
2022-08-19T13:44:34.939Z,100695.28
2022-08-19T13:47:06.686Z,100690.75
2022-08-19T13:49:36.968Z,100688.75
2022-08-19T13:52:06.704Z,100694.84
2022-08-19T13:54:36.636Z,100701.50
2022-08-19T13:57:05.704Z,100708.34
2022-08-19T13:59:34.622Z,100705.72
2022-08-19T14:02:03.636Z,100701.44
2022-08-19T14:04:32.160Z,100711.63
2022-08-19T14:07:00.616Z,100705.59
2022-08-19T14:09:29.107Z,100701.63
2022-08-19T14:11:58.955Z,100710.47
2022-08-19T14:14:27.346Z,100709.38
2022-08-19T14:16:55.812Z,100708.56
2022-08-19T14:19:24.247Z,100712.25
2022-08-19T14:21:52.774Z,100719.22
2022-08-19T14:24:21.216Z,100715.63
2022-08-19T14:26:49.918Z,100705.75
2022-08-19T14:29:19.816Z,100708.25
2022-08-19T14:31:48.254Z,100720.19
2022-08-19T14:34:16.733Z,100719.94
2022-08-19T14:36:46.225Z,100711.63
2022-08-19T14:39:14.720Z,100728.28
2022-08-19T14:41:43.838Z,100716.09
2022-08-19T14:44:13.583Z,100721.63
2022-08-19T14:46:49.643Z,100726.06
2022-08-19T14:49:19.086Z,100719.19
2022-08-19T14:51:48.763Z,100727.22
2022-08-19T14:54:17.212Z,100716.69
2022-08-19T14:56:45.890Z,100721.13
2022-08-19T14:59:14.632Z,100720.59
2022-08-19T15:01:44.830Z,100726.97
2022-08-19T15:04:13.329Z,100723.91
2022-08-19T15:06:43.354Z,100726.41
2022-08-19T15:09:12.668Z,100723.34
2022-08-19T15:11:41.241Z,100726.13
2022-08-19T15:14:10.266Z,100727.50
2022-08-19T15:16:40.577Z,100733.03
2022-08-19T15:19:11.360Z,100725.88
2022-08-19T15:21:39.929Z,100717.56
2022-08-19T15:24:08.712Z,100721.69
2022-08-19T15:26:37.303Z,100729.44
2022-08-19T15:29:06.255Z,100730.25
2022-08-19T15:31:38.222Z,100736.34
2022-08-19T15:34:08.053Z,100736.56
2022-08-19T15:36:38.614Z,100739.34
2022-08-19T15:39:10.135Z,100738.22
2022-08-19T15:41:41.252Z,100741.28
2022-08-19T15:44:13.339Z,100747.66
2022-08-19T15:46:45.320Z,100748.47
2022-08-19T15:49:16.277Z,100755.41
2022-08-19T15:51:49.138Z,100754.00
2022-08-19T15:54:22.739Z,100752.34
2022-08-19T15:57:09.252Z,100757.31
2022-08-19T16:00:02.431Z,100759.78
2022-08-19T16:02:53.532Z,100769.50
2022-08-19T16:05:44.190Z,100765.34
2022-08-19T16:08:15.644Z,100782.75
2022-08-19T16:10:44.242Z,100768.94
2022-08-19T16:13:12.774Z,100775.31
2022-08-19T16:15:42.118Z,100782.78
2022-08-19T17:42:12.506Z,100839.59
2022-08-19T17:44:41.015Z,100843.44
2022-08-19T17:47:09.500Z,100835.72
2022-08-19T17:49:38.192Z,100852.81
2022-08-19T17:52:09.941Z,100848.94
2022-08-19T17:54:38.927Z,100852.81
2022-08-19T17:57:07.420Z,100842.34
2022-08-19T17:59:37.703Z,100847.06
2022-08-19T18:02:08.076Z,100851.47
2022-08-19T18:04:39.009Z,100852.00
2022-08-19T18:07:07.543Z,100847.88
2022-08-19T18:09:41.807Z,100843.16
2022-08-19T18:12:12.561Z,100850.63
2022-08-19T18:14:43.371Z,100856.16
2022-08-19T18:17:13.620Z,100850.88
2022-08-19T18:19:44.195Z,100853.91
2022-08-19T18:22:14.924Z,100852.50
2022-08-19T18:24:45.961Z,100855.84
2022-08-19T18:27:15.046Z,100868.53
2022-08-19T18:29:45.361Z,100873.75
2022-08-19T18:32:14.704Z,100875.97
2022-08-19T18:34:44.585Z,100875.09
2022-08-19T18:37:13.979Z,100870.41
2022-08-19T18:39:59.980Z,100869.59
2022-08-19T18:42:46.010Z,100865.41
2022-08-19T18:45:33.317Z,100862.06
2022-08-19T18:48:26.852Z,100859.06
2022-08-19T18:50:58.508Z,100857.72
2022-08-19T18:53:29.038Z,100865.88
2022-08-19T18:55:57.898Z,100865.56
2022-08-19T18:58:28.477Z,100872.50
2022-08-19T19:00:58.407Z,100872.72
2022-08-19T19:03:27.096Z,100866.91
2022-08-19T19:05:55.786Z,100868.84
2022-08-19T19:08:27.094Z,100874.34
2022-08-19T19:10:59.024Z,100874.06
2022-08-19T19:13:29.265Z,100874.59
2022-08-19T19:16:01.233Z,100870.41
2022-08-19T19:18:30.206Z,100868.47
2022-08-19T19:20:59.195Z,100867.59
2022-08-19T19:23:28.616Z,100876.69
2022-08-19T19:25:57.026Z,100879.19
2022-08-19T19:28:28.396Z,100872.56
2022-08-19T19:30:59.351Z,100867.22
2022-08-19T19:33:29.182Z,100869.44
2022-08-19T19:35:57.709Z,100877.19
2022-08-19T19:38:26.141Z,100876.38
2022-08-19T19:40:54.670Z,100874.66
2022-08-19T19:43:23.298Z,100874.06
2022-08-19T19:45:52.090Z,100882.59
2022-08-19T19:48:22.019Z,100882.03
2022-08-19T19:50:53.941Z,100878.16
2022-08-19T19:53:26.359Z,100882.78
2022-08-19T19:55:58.758Z,100884.94
2022-08-19T19:58:28.964Z,100882.72
2022-08-19T20:00:59.018Z,100887.94
2022-08-19T20:03:30.028Z,100880.75
2022-08-19T20:05:59.632Z,100884.88
2022-08-19T20:08:46.548Z,100885.19
2022-08-19T20:11:26.225Z,100886.78
2022-08-19T20:13:54.675Z,100885.34
2022-08-19T20:16:25.449Z,100890.03
2022-08-19T20:18:55.865Z,100895.03
2022-08-19T20:21:28.500Z,100888.38
2022-08-19T20:24:08.594Z,100895.72
2022-08-19T20:26:38.293Z,100904.75
2022-08-19T20:29:13.522Z,100893.47
2022-08-19T20:31:57.772Z,100902.50
2022-08-19T20:34:29.695Z,100902.97
2022-08-19T20:36:58.148Z,100898.56
2022-08-19T20:39:26.597Z,100894.69
2022-08-19T20:41:56.529Z,100902.94
2022-08-19T20:44:26.019Z,100897.16
2022-08-19T20:46:57.541Z,100907.63
2022-08-19T20:49:29.587Z,100908.13
2022-08-19T20:51:58.566Z,100908.66
2022-08-19T20:54:27.466Z,100904.16
2022-08-19T20:56:56.081Z,100909.84
2022-08-19T20:59:25.966Z,100907.09
2022-08-19T21:01:54.911Z,100912.28
2022-08-19T21:04:23.704Z,100914.97
2022-08-19T21:06:54.816Z,100920.72
2022-08-19T21:09:23.488Z,100923.25
2022-08-19T21:11:51.950Z,100916.59
2022-08-19T21:14:20.803Z,100925.03
2022-08-19T21:16:49.459Z,100930.53
2022-08-19T21:19:22.038Z,100921.69
2022-08-19T21:21:54.067Z,100926.31
2022-08-19T21:24:26.300Z,100922.47
2022-08-19T21:27:00.165Z,100929.13
2022-08-19T21:29:28.609Z,100926.13
2022-08-19T21:31:57.067Z,100922.19
2022-08-19T21:34:25.554Z,100923.78
2022-08-19T21:36:55.399Z,100936.72
2022-08-19T21:39:24.055Z,100926.00
2022-08-19T21:41:52.629Z,100927.88
2022-08-19T21:44:21.086Z,100928.41
2022-08-19T21:46:50.546Z,100920.66
2022-08-19T21:49:19.811Z,100923.16
2022-08-19T21:51:48.300Z,100921.16
2022-08-19T21:54:18.327Z,100928.59
2022-08-19T21:56:47.200Z,100928.84
2022-08-19T21:59:17.082Z,100923.09
2022-08-19T22:01:49.676Z,100924.38
2022-08-19T22:04:22.485Z,100927.38
2022-08-19T22:06:51.102Z,100935.88
2022-08-19T22:09:20.991Z,100925.44
2022-08-19T22:11:49.615Z,100936.72
2022-08-19T22:14:18.054Z,100928.31
2022-08-19T22:16:47.441Z,100927.03
2022-08-19T22:19:15.861Z,100937.97
2022-08-19T22:21:44.321Z,100939.03
2022-08-19T22:24:12.680Z,100942.66
2022-08-19T22:26:42.576Z,100938.47
2022-08-19T22:29:11.076Z,100940.06
2022-08-19T22:31:44.450Z,100936.56
2022-08-19T22:34:12.882Z,100936.13
2022-08-19T22:36:41.566Z,100936.88
2022-08-19T22:39:10.000Z,100939.38
2022-08-19T22:41:40.853Z,100939.88
2022-08-19T22:44:11.632Z,100942.31
2022-08-19T22:46:40.109Z,100937.03
2022-08-19T22:49:08.672Z,100946.72
2022-08-19T22:51:54.763Z,100945.88
2022-08-19T22:54:23.329Z,100949.72
2022-08-19T22:56:52.798Z,100942.22
2022-08-19T22:59:22.683Z,100948.81
2022-08-19T23:01:51.112Z,100955.13
2022-08-19T23:04:19.657Z,100949.22
2022-08-19T23:06:48.184Z,100954.78
2022-08-19T23:09:17.462Z,100958.63
2022-08-19T23:11:46.132Z,100955.88
2022-08-19T23:14:16.937Z,100957.81
2022-08-19T23:16:51.024Z,100957.47
2022-08-19T23:19:21.310Z,100963.47
2022-08-19T23:21:50.242Z,100969.31
2022-08-19T23:24:18.744Z,100970.28
2022-08-19T23:27:01.072Z,100976.28
2022-08-19T23:29:47.303Z,100971.88
2022-08-19T23:32:19.062Z,100976.47
2022-08-19T23:34:48.448Z,100965.72
2022-08-19T23:37:16.935Z,100962.38
2022-08-19T23:39:45.607Z,100968.72
2022-08-19T23:42:14.306Z,100979.38
2022-08-19T23:44:52.106Z,100978.44
2022-08-19T23:47:23.671Z,100976.78
2022-08-19T23:49:52.096Z,100981.69
2022-08-19T23:52:21.045Z,100977.75
2022-08-19T23:54:49.568Z,100976.84
2022-08-19T23:57:17.995Z,100975.41
2022-08-19T23:59:46.497Z,100978.06
